Flight Track Log - Related Links

Times and Time Zones

All times are in EDT time to prevent confusion due to time zone crossing. See the DAL1955 flight status page for this flight to view local times or setup timezone preferences in your user account.

Time Position Orientation Groundspeed Altitude Reporting Facility
EDT Latitude Longitude Course Direction KTS MPH feet Rate Location/Type
Sun 05:22:35 PM 33.6500 -84.4833 North 189 217 2,500  Level Atlanta TRACON
Sun 05:23:36 PM 33.6833 -84.5500 301° West 250 288 5,200 2,762 Climbing Atlanta TRACON
Sun 05:24:00 PM 33.8454 -84.1787 320° Northwest  Level FlightAware Approximate
Sun 05:24:41 PM 33.7500 -84.5833 337° Northwest 272 313 8,300  Level Atlanta TRACON
Sun 05:25:00 PM 33.9456 -84.2667 North  Level FlightAware Approximate
Sun 05:25:36 PM 33.8167 -84.5500 23° Northeast 302 348 10,500  Level Atlanta TRACON
Sun 05:26:00 PM 34.0722 -84.2667 North  Level FlightAware Approximate
Sun 05:26:34 PM 33.8853 -84.5117 25° Northeast 320 368 11,800  Level Atlanta Center
Sun 05:27:00 PM 34.1988 -84.2667 North  Level FlightAware Approximate
Sun 05:27:34 PM 33.9981 -84.4522 24° Northeast 358 412 14,000  Level Atlanta Center
Sun 05:28:34 PM 34.0839 -84.4000 27° Northeast 370 426 15,900 2,150 Climbing Atlanta Center
Sun 05:29:34 PM 34.2072 -84.3303 25° Northeast 417 480 18,300 1,950 Climbing Atlanta Center
Sun 05:30:34 PM 34.3075 -84.2778 23° Northeast 435 501 19,800 1,650 Climbing Atlanta Center
Sun 05:31:34 PM 34.4286 -84.2503 11° North 435 501 21,600 1,750 Climbing Atlanta Center
Sun 05:32:34 PM 34.5517 -84.2228 10° North 435 501 23,300 1,750 Climbing Atlanta Center
Sun 05:33:34 PM 34.6750 -84.1928 11° North 454 522 25,100 1,900 Climbing Atlanta Center
Sun 05:34:34 PM 34.8003 -84.1653 10° North 454 522 27,100 1,700 Climbing Atlanta Center
Sun 05:35:34 PM 34.9233 -84.1350 11° North 449 517 28,500 1,300 Climbing Atlanta Center
Sun 05:36:34 PM 35.0486 -84.1022 12° North 449 517 29,700 1,250 Climbing Atlanta Center
Sun 05:37:34 PM 35.1736 -84.0744 10° North 449 517 31,000 1,200 Climbing Atlanta Center
Sun 05:38:34 PM 35.3011 -84.0414 12° North 449 517 32,100 1,000 Climbing Atlanta Center
Sun 05:39:34 PM 35.4261 -84.0133 10° North 449 517 33,000 900 Climbing Atlanta Center
Sun 05:40:34 PM 35.5514 -83.9825 11° North 449 517 33,900 500 Climbing Atlanta Center
Sun 05:41:34 PM 35.6786 -83.9519 11° North 449 517 34,000 50 Climbing Atlanta Center
Sun 05:42:34 PM 35.8058 -83.9183 12° North 454 522 34,000  Level Atlanta Center
Sun 05:43:34 PM 35.9350 -83.8900 10° North 460 529 34,000  Level Atlanta Center
Sun 05:44:34 PM 36.0622 -83.8692 North 460 529 34,000  Level Atlanta Center
Sun 05:45:34 PM 36.1894 -83.8458 North 465 535 34,000  Level Atlanta Center
Sun 05:47:22 PM 36.4175 -83.8047 North 466 536 34,000  Level Indianapolis Center
Sun 05:48:24 PM 36.5592 -83.7817 North 461 531 34,000  Level Indianapolis Center
Sun 05:49:26 PM 36.6819 -83.7603 North 446 513 34,000  Level Indianapolis Center
Sun 05:50:28 PM 36.8039 -83.7389 North 441 507 34,000 -290 Level Indianapolis Center
Sun 05:51:30 PM 36.9261 -83.7175 North 440 506 33,400 -968 Descending Indianapolis Center
Sun 05:52:32 PM 37.0714 -83.6925 North 449 517 32,000 -677 Descending Indianapolis Center
Sun 05:53:34 PM 37.1961 -83.6689 North 451 519 32,000 -968 Level Indianapolis Center
Sun 05:54:36 PM 37.3192 -83.6472 North 445 512 30,000 -2,806 Descending Indianapolis Center
Sun 05:55:38 PM 37.4467 -83.6253 North 457 526 26,200 -2,903 Descending Indianapolis Center
Sun 05:56:40 PM 37.5717 -83.6017 North 452 520 24,000 -1,065 Descending Indianapolis Center
Sun 05:57:42 PM 37.6847 -83.6178 354° North 415 478 24,000 -774 Level Indianapolis Center
Sun 05:58:44 PM 37.7947 -83.6947 331° Northwest 387 445 22,400 -976 Descending Indianapolis Center
Sun 05:59:45 PM 37.8886 -83.7608 331° Northwest 386 444 22,000 -195 Descending Indianapolis Center
Sun 06:00:47 PM 37.9828 -83.8258 331° Northwest 385 443 22,000 -339 Level Indianapolis Center
Sun 06:01:49 PM 38.0758 -83.8928 330° Northwest 384 442 21,300 -1,645 Descending Indianapolis Center
Sun 06:02:51 PM 38.1661 -83.9581 330° Northwest 374 430 18,600 -2,661 Descending Indianapolis Center
Sun 06:03:53 PM 38.2558 -84.0214 331° Northwest 368 423 15,800 -2,952 Descending Indianapolis Center
Sun 06:04:55 PM 38.3553 -84.0936 330° Northwest 354 407 12,500 -2,274 Descending Indianapolis Center
Sun 06:05:57 PM 38.4386 -84.1556 330° Northwest 345 397 11,100 -774 Descending Indianapolis Center
Sun 06:06:59 PM 38.5178 -84.2247 326° Northwest 344 396 10,900 -435 Descending Indianapolis Center
Sun 06:08:01 PM 38.5683 -84.3144 306° West 311 358 10,200 -871 Descending Indianapolis Center
Sun 06:09:03 PM 38.6108 -84.3853 308° West 257 296 9,100 -1,258 Descending Indianapolis Center
Sun 06:10:05 PM 38.6583 -84.4631 308° West 255 293 7,600 -1,548 Descending Indianapolis Center
Sun 06:11:07 PM 38.7075 -84.5400 309° West 256 295 5,900 -1,306 Descending Indianapolis Center
Sun 06:12:09 PM 38.7528 -84.6025 313° West 253 291 4,900 -1,088 Descending Indianapolis Center
Sun 06:14:09 PM 38.8833 -84.6667 339° North 234 269 2,600 -1,150 Descending Cincinnati TRACON

Login

Don't have an account? Register now (free) for customized features, flight alerts, and more!